createdAt,value
2023-05-20T00:02:09.388Z,2.70
2023-05-20T00:04:35.838Z,2.53
2023-05-20T00:07:02.244Z,2.63
2023-05-20T00:09:29.579Z,2.40
2023-05-20T00:11:55.995Z,2.60
2023-05-20T00:14:22.336Z,2.53
2023-05-20T00:16:48.859Z,2.37
2023-05-20T00:19:15.370Z,2.40
2023-05-20T00:21:41.781Z,2.57
2023-05-20T00:24:08.135Z,2.63
2023-05-20T00:26:34.559Z,2.70
2023-05-20T00:29:01.135Z,2.30
2023-05-20T00:31:27.516Z,2.87
2023-05-20T00:33:53.987Z,2.97
2023-05-20T00:36:20.585Z,2.47
2023-05-20T00:38:47.063Z,2.50
2023-05-20T00:41:13.456Z,2.70
2023-05-20T00:43:39.810Z,2.60
2023-05-20T00:46:06.240Z,2.70
2023-05-20T00:48:42.928Z,2.70
2023-05-20T00:51:11.341Z,3.00
2023-05-20T00:53:38.418Z,2.73
2023-05-20T00:56:05.611Z,2.90
2023-05-20T00:58:32.348Z,3.03
2023-05-20T01:00:58.710Z,2.40
2023-05-20T01:03:25.449Z,2.70
2023-05-20T01:05:52.006Z,2.87
2023-05-20T01:08:19.013Z,2.50
2023-05-20T01:10:47.625Z,2.53
2023-05-20T01:13:19.068Z,2.37
2023-05-20T01:15:48.507Z,2.73
2023-05-20T01:18:18.296Z,2.50
2023-05-20T01:20:48.615Z,2.53
2023-05-20T01:23:15.584Z,2.97
2023-05-20T01:25:42.426Z,2.93
2023-05-20T01:28:09.515Z,2.77
2023-05-20T01:30:40.871Z,2.27
2023-05-20T01:33:11.330Z,2.43
2023-05-20T01:35:41.354Z,2.60
2023-05-20T01:38:08.295Z,2.73
2023-05-20T01:40:34.912Z,2.70
2023-05-20T01:43:03.182Z,2.37
2023-05-20T01:45:29.607Z,2.40
2023-05-20T01:47:56.072Z,2.73
2023-05-20T01:50:22.573Z,2.60
2023-05-20T01:52:48.972Z,2.83
2023-05-20T01:55:15.460Z,2.57
2023-05-20T01:57:41.809Z,2.57
2023-05-20T02:00:09.634Z,2.40
2023-05-20T02:02:36.418Z,2.70
2023-05-20T02:05:02.949Z,2.50
2023-05-20T02:07:29.278Z,2.40
2023-05-20T02:09:55.708Z,3.10
2023-05-20T02:12:22.065Z,2.60
2023-05-20T02:14:50.285Z,2.60
2023-05-20T02:17:17.675Z,2.67
2023-05-20T02:19:45.785Z,2.70
2023-05-20T02:22:12.358Z,2.73
2023-05-20T02:24:38.999Z,2.93
2023-05-20T02:27:06.278Z,2.73
2023-05-20T02:29:32.757Z,2.80
2023-05-20T02:31:59.199Z,3.13
2023-05-20T02:34:30.121Z,2.70
2023-05-20T02:36:56.843Z,3.20
2023-05-20T02:39:23.232Z,3.10
2023-05-20T02:41:49.621Z,2.90
2023-05-20T02:44:16.848Z,3.07
2023-05-20T02:46:43.410Z,2.97
2023-05-20T02:49:09.750Z,2.60
2023-05-20T02:51:36.873Z,3.40
2023-05-20T02:54:03.703Z,3.30
2023-05-20T02:56:30.100Z,3.10
2023-05-20T02:58:56.628Z,3.00
2023-05-20T03:01:23.380Z,3.10
2023-05-20T03:03:49.811Z,3.40
2023-05-20T03:06:16.361Z,3.30
2023-05-20T03:08:42.857Z,3.03
2023-05-20T03:11:09.267Z,2.77
2023-05-20T03:13:35.634Z,2.97
2023-05-20T03:16:02.365Z,3.30
2023-05-20T03:18:28.943Z,3.37
2023-05-20T03:20:55.287Z,3.07
2023-05-20T03:23:21.646Z,3.03
2023-05-20T03:25:48.345Z,2.90
2023-05-20T03:28:14.677Z,3.03
2023-05-20T03:30:41.029Z,3.10
2023-05-20T03:33:07.553Z,3.13
2023-05-20T03:35:34.007Z,3.13
2023-05-20T03:38:01.711Z,3.30
2023-05-20T03:40:28.167Z,3.30
2023-05-20T03:42:54.603Z,3.50
2023-05-20T03:45:20.966Z,3.33
2023-05-20T03:47:47.374Z,3.27
2023-05-20T03:50:13.812Z,3.10
2023-05-20T03:52:40.911Z,3.03
2023-05-20T03:55:07.962Z,3.07
2023-05-20T03:57:34.407Z,3.70
2023-05-20T04:00:02.216Z,3.80
2023-05-20T04:02:28.779Z,3.53
2023-05-20T04:04:57.579Z,3.40
2023-05-20T04:07:23.992Z,3.37
2023-05-20T04:09:50.483Z,3.43
2023-05-20T04:12:19.313Z,3.77
2023-05-20T04:14:45.689Z,3.50
2023-05-20T04:17:12.008Z,3.47
2023-05-20T04:19:38.385Z,3.23
2023-05-20T04:22:05.005Z,3.80
2023-05-20T04:24:31.422Z,3.43
2023-05-20T04:26:57.799Z,3.80
2023-05-20T04:29:24.268Z,3.23
2023-05-20T04:31:50.658Z,3.67
2023-05-20T04:34:20.216Z,3.80
2023-05-20T04:36:47.077Z,3.57
2023-05-20T04:39:13.843Z,3.70
2023-05-20T04:41:42.654Z,3.80
2023-05-20T04:44:09.478Z,3.80
2023-05-20T04:46:35.949Z,3.47
2023-05-20T04:49:04.424Z,3.53
2023-05-20T04:51:31.253Z,3.77
2023-05-20T04:53:58.857Z,3.70
2023-05-20T04:56:26.059Z,3.53
2023-05-20T04:58:52.691Z,3.70
2023-05-20T05:01:19.365Z,3.83
2023-05-20T05:03:45.916Z,4.00
2023-05-20T05:06:12.257Z,4.00
2023-05-20T05:08:38.633Z,4.00
2023-05-20T05:11:06.740Z,3.50
2023-05-20T05:13:33.107Z,3.63
2023-05-20T05:16:00.811Z,3.90
2023-05-20T05:18:27.477Z,3.83
2023-05-20T05:21:01.683Z,3.80
2023-05-20T05:23:28.127Z,3.80
2023-05-20T05:25:54.598Z,3.70
2023-05-20T05:28:20.992Z,3.90
2023-05-20T05:30:47.351Z,3.63
2023-05-20T05:33:17.678Z,3.60
2023-05-20T05:35:44.121Z,3.87
2023-05-20T05:38:10.515Z,3.77
2023-05-20T05:40:37.169Z,4.37
2023-05-20T05:43:05.686Z,4.07
2023-05-20T05:45:32.219Z,4.00
2023-05-20T05:47:58.770Z,4.00
2023-05-20T05:50:25.242Z,4.20
2023-05-20T05:52:51.633Z,3.83
2023-05-20T05:55:18.363Z,3.90
2023-05-20T05:57:44.984Z,4.10
2023-05-20T06:00:11.957Z,3.70
2023-05-20T06:02:38.376Z,4.33
2023-05-20T06:05:05.680Z,4.00
2023-05-20T06:07:32.025Z,3.83
2023-05-20T06:09:58.698Z,3.70
2023-05-20T06:12:25.082Z,4.00
2023-05-20T06:14:51.476Z,3.73
2023-05-20T06:17:17.888Z,4.20
2023-05-20T06:19:44.271Z,3.73
2023-05-20T06:22:10.596Z,3.90
2023-05-20T06:24:36.987Z,4.60
2023-05-20T06:27:03.405Z,3.57
2023-05-20T06:29:29.929Z,3.97
2023-05-20T06:31:56.647Z,4.53
2023-05-20T06:34:23.024Z,4.17
2023-05-20T06:36:49.374Z,3.80
2023-05-20T06:39:15.849Z,4.30
2023-05-20T06:41:42.281Z,3.80
2023-05-20T06:44:08.690Z,4.10
2023-05-20T06:46:35.151Z,4.30
2023-05-20T06:49:01.577Z,4.40
2023-05-20T06:51:28.384Z,4.27
2023-05-20T06:53:54.767Z,4.90
2023-05-20T06:56:21.543Z,4.40
2023-05-20T06:58:48.150Z,4.80
2023-05-20T07:01:17.285Z,5.00
2023-05-20T07:03:44.594Z,4.47
2023-05-20T07:06:11.048Z,4.47
2023-05-20T07:08:37.443Z,5.00
2023-05-20T07:11:03.908Z,4.87
2023-05-20T07:13:31.138Z,4.50
2023-05-20T07:15:57.517Z,5.00
2023-05-20T07:18:23.979Z,4.43
2023-05-20T07:20:50.301Z,4.60
2023-05-20T07:23:16.690Z,4.70
2023-05-20T07:25:43.081Z,4.50
2023-05-20T07:28:09.529Z,4.80
2023-05-20T07:30:35.969Z,5.13
2023-05-20T07:33:02.445Z,5.00
2023-05-20T07:35:28.924Z,5.07
2023-05-20T07:37:55.870Z,5.70
2023-05-20T07:40:22.211Z,4.70
2023-05-20T07:42:48.546Z,5.43
2023-05-20T07:45:14.984Z,5.37
2023-05-20T07:47:41.378Z,5.20
2023-05-20T07:50:09.089Z,5.33
2023-05-20T07:52:41.150Z,5.50
2023-05-20T07:55:14.520Z,6.07
2023-05-20T07:57:41.644Z,5.50
2023-05-20T08:00:10.029Z,5.43
2023-05-20T08:02:36.465Z,5.20
2023-05-20T08:05:03.102Z,5.90
2023-05-20T08:07:29.570Z,5.63
2023-05-20T08:09:55.886Z,5.70
2023-05-20T08:12:22.281Z,6.00
2023-05-20T08:14:48.595Z,5.70
2023-05-20T08:17:15.278Z,5.63
2023-05-20T08:19:41.644Z,6.30
2023-05-20T08:22:08.666Z,5.80
2023-05-20T08:24:35.014Z,6.13
2023-05-20T08:27:01.448Z,6.17
2023-05-20T08:29:27.811Z,5.57
2023-05-20T08:31:54.153Z,5.57
2023-05-20T08:34:20.876Z,5.50
2023-05-20T08:36:47.286Z,5.93
2023-05-20T08:39:13.666Z,6.50
2023-05-20T08:41:40.037Z,6.03
2023-05-20T08:44:09.686Z,5.73
2023-05-20T08:46:37.711Z,5.93
2023-05-20T08:49:04.244Z,5.80
2023-05-20T08:51:33.523Z,6.03
2023-05-20T08:54:00.154Z,6.60
2023-05-20T08:56:30.058Z,5.83
2023-05-20T08:58:57.318Z,6.40
2023-05-20T09:01:25.970Z,5.90
2023-05-20T09:03:52.973Z,6.20
2023-05-20T09:06:22.129Z,6.30
2023-05-20T09:08:52.571Z,6.70
2023-05-20T09:11:21.640Z,6.57
2023-05-20T09:13:48.053Z,6.40
2023-05-20T09:16:14.640Z,6.80
2023-05-20T09:18:41.542Z,6.70
2023-05-20T09:21:09.947Z,7.17
2023-05-20T09:23:39.214Z,6.03
2023-05-20T09:26:05.689Z,6.25
2023-05-20T09:28:32.102Z,6.20
2023-05-20T09:31:02.046Z,7.03
2023-05-20T09:33:32.116Z,7.20
2023-05-20T09:36:07.657Z,6.82
2023-05-20T09:38:38.821Z,6.63
2023-05-20T09:41:11.956Z,6.57
2023-05-20T09:43:40.146Z,6.70
2023-05-20T09:46:08.199Z,6.95
2023-05-20T09:48:38.162Z,6.70
2023-05-20T09:51:05.915Z,7.15
2023-05-20T09:53:32.535Z,6.82
2023-05-20T09:55:59.117Z,6.90
2023-05-20T09:58:25.952Z,6.30
2023-05-20T10:00:53.921Z,7.60
2023-05-20T10:03:24.212Z,6.95
2023-05-20T10:06:11.740Z,6.40
2023-05-20T10:09:02.586Z,6.57
2023-05-20T10:12:05.069Z,6.45
2023-05-20T10:15:06.987Z,6.70
2023-05-20T10:18:13.897Z,6.82
2023-05-20T10:20:47.822Z,6.30
2023-05-20T10:23:24.261Z,6.00
2023-05-20T10:25:55.297Z,6.43
2023-05-20T10:28:29.686Z,6.60
2023-05-20T10:30:56.554Z,7.07
2023-05-20T10:33:22.966Z,6.93
2023-05-20T10:35:53.455Z,7.22
2023-05-20T10:38:21.246Z,6.90
2023-05-20T10:40:47.808Z,7.03
2023-05-20T10:43:26.924Z,7.40
2023-05-20T10:45:58.111Z,7.25
2023-05-20T10:48:26.152Z,7.15
2023-05-20T10:50:57.844Z,7.53
2023-05-20T10:53:33.359Z,7.05
2023-05-20T10:56:00.680Z,7.00
2023-05-20T10:58:27.114Z,6.85
2023-05-20T11:00:55.255Z,7.28
2023-05-20T11:03:22.477Z,6.85
2023-05-20T11:05:50.124Z,7.88
2023-05-20T11:08:27.659Z,7.00
2023-05-20T11:10:59.211Z,7.45
2023-05-20T11:13:28.150Z,6.53
2023-05-20T11:15:55.764Z,6.60
2023-05-20T11:18:22.289Z,7.25
2023-05-20T11:20:48.867Z,7.15
2023-05-20T11:23:15.443Z,6.28
2023-05-20T11:25:42.089Z,6.93
2023-05-20T11:28:12.894Z,6.93
2023-05-20T11:30:39.731Z,7.13
2023-05-20T11:33:06.147Z,8.20
2023-05-20T11:35:33.238Z,8.02
2023-05-20T11:38:09.006Z,6.95
2023-05-20T11:40:42.721Z,7.32
2023-05-20T11:43:15.907Z,6.35
2023-05-20T11:45:44.476Z,6.78
2023-05-20T11:48:12.430Z,6.38
2023-05-20T11:50:41.144Z,6.43
2023-05-20T11:53:09.585Z,6.53
2023-05-20T11:55:51.049Z,6.78
2023-05-20T11:58:30.694Z,6.22
2023-05-20T12:01:05.766Z,6.68
2023-05-20T12:03:36.527Z,6.30
2023-05-20T12:06:03.586Z,6.40
2023-05-20T12:08:29.989Z,6.80
2023-05-20T12:10:56.521Z,6.70
2023-05-20T12:13:23.725Z,6.95
2023-05-20T12:15:50.315Z,6.82
2023-05-20T12:18:16.687Z,6.43
2023-05-20T12:20:43.078Z,6.60
2023-05-20T12:23:09.430Z,5.85
2023-05-20T12:25:35.825Z,6.72
2023-05-20T12:28:02.333Z,5.85
2023-05-20T12:30:28.689Z,6.25
2023-05-20T12:32:55.080Z,6.00
2023-05-20T12:35:26.055Z,6.30
2023-05-20T12:37:52.857Z,6.47
2023-05-20T12:40:19.280Z,6.82
2023-05-20T12:42:45.684Z,6.97
2023-05-20T12:45:13.332Z,7.05
2023-05-20T12:47:39.798Z,6.97
2023-05-20T12:50:06.992Z,6.70
2023-05-20T12:52:33.368Z,7.45
2023-05-20T12:54:59.694Z,7.10
2023-05-20T12:57:26.415Z,6.65
2023-05-20T12:59:52.961Z,7.20
2023-05-20T13:02:19.516Z,7.00
2023-05-20T13:04:46.112Z,6.60
2023-05-20T13:07:12.521Z,6.45
2023-05-20T13:09:38.893Z,6.82
2023-05-20T13:12:05.627Z,6.78
2023-05-20T13:14:32.040Z,7.28
2023-05-20T13:16:58.562Z,7.57
2023-05-20T13:19:25.197Z,7.43
2023-05-20T13:21:54.480Z,6.80
2023-05-20T13:24:21.361Z,7.13
2023-05-20T13:26:47.912Z,7.13
2023-05-20T13:29:14.385Z,7.40
2023-05-20T13:31:40.720Z,7.47
2023-05-20T13:34:07.173Z,7.10
2023-05-20T13:36:33.909Z,7.72
2023-05-20T13:39:00.638Z,6.93
2023-05-20T13:41:27.543Z,8.20
2023-05-20T13:43:53.945Z,7.38
2023-05-20T13:46:20.502Z,7.18
2023-05-20T13:48:46.958Z,7.35
2023-05-20T13:51:13.562Z,7.75
2023-05-20T13:53:40.357Z,7.78
2023-05-20T13:56:09.221Z,8.10
2023-05-20T13:58:38.706Z,8.65
2023-05-20T14:01:06.176Z,7.20
2023-05-20T14:03:37.273Z,7.47
2023-05-20T14:06:04.148Z,6.90
2023-05-20T14:08:30.539Z,7.43
2023-05-20T14:10:56.884Z,7.90
2023-05-20T14:13:23.577Z,7.57
2023-05-20T14:15:54.766Z,7.88
2023-05-20T14:18:21.548Z,7.70
2023-05-20T14:20:48.013Z,8.02
2023-05-20T14:23:14.428Z,7.53
2023-05-20T14:25:40.923Z,8.07
2023-05-20T14:28:07.339Z,7.53
2023-05-20T14:30:34.153Z,7.63
2023-05-20T14:33:00.990Z,7.63
2023-05-20T14:35:27.368Z,7.93
2023-05-20T14:37:53.868Z,8.60
2023-05-20T14:40:20.455Z,7.95
2023-05-20T14:42:46.944Z,7.82
2023-05-20T14:45:13.318Z,7.30
2023-05-20T14:47:42.360Z,7.60
2023-05-20T14:50:09.142Z,8.30
2023-05-20T14:52:35.554Z,7.97
2023-05-20T14:55:01.906Z,7.32
2023-05-20T14:57:28.341Z,8.32
2023-05-20T14:59:54.786Z,8.80
2023-05-20T15:02:21.190Z,7.65
2023-05-20T15:04:48.570Z,8.25
2023-05-20T15:07:15.667Z,8.48
2023-05-20T15:09:43.512Z,7.85
2023-05-20T15:12:13.519Z,8.07
2023-05-20T15:14:39.905Z,8.30
2023-05-20T15:17:06.552Z,7.97
2023-05-20T15:19:33.219Z,8.20
2023-05-20T15:22:00.028Z,8.50
2023-05-20T15:24:26.435Z,7.85
2023-05-20T15:26:54.847Z,7.95
2023-05-20T15:29:21.648Z,7.60
2023-05-20T15:31:48.043Z,8.55
2023-05-20T15:34:14.530Z,8.15
2023-05-20T15:36:40.906Z,8.20
2023-05-20T15:39:08.013Z,8.15
2023-05-20T15:41:34.534Z,8.60
2023-05-20T15:44:00.879Z,7.85
2023-05-20T15:46:27.364Z,8.40
2023-05-20T15:48:56.115Z,8.13
2023-05-20T15:51:23.163Z,8.50
2023-05-20T15:53:49.669Z,8.32
2023-05-20T15:56:16.603Z,8.63
2023-05-20T15:58:44.264Z,8.80
2023-05-20T16:01:10.698Z,8.65
2023-05-20T16:03:37.154Z,9.27
2023-05-20T16:06:03.746Z,8.63
2023-05-20T16:08:30.121Z,9.00
2023-05-20T16:10:56.792Z,8.40
2023-05-20T16:13:23.198Z,8.45
2023-05-20T16:15:50.907Z,8.27
2023-05-20T16:18:17.631Z,8.75
2023-05-20T16:20:43.957Z,8.07
2023-05-20T16:23:10.337Z,8.85
2023-05-20T16:25:36.687Z,8.68
2023-05-20T16:28:03.057Z,8.05
2023-05-20T16:30:29.441Z,8.88
2023-05-20T16:32:58.264Z,8.55
2023-05-20T16:35:24.662Z,8.52
2023-05-20T16:37:51.089Z,8.30
2023-05-20T16:40:17.491Z,8.27
2023-05-20T16:42:44.731Z,8.57
2023-05-20T16:45:11.691Z,8.63
2023-05-20T16:47:38.247Z,8.57
2023-05-20T16:50:04.880Z,8.70
2023-05-20T16:52:33.050Z,8.40
2023-05-20T16:55:02.921Z,9.02
2023-05-20T16:57:29.304Z,8.68
2023-05-20T16:59:55.826Z,9.10
2023-05-20T17:02:22.267Z,8.07
2023-05-20T17:04:48.671Z,8.07
2023-05-20T17:07:15.904Z,8.35
2023-05-20T17:09:42.259Z,8.60
2023-05-20T17:12:08.855Z,8.98
2023-05-20T17:14:35.262Z,8.70
2023-05-20T17:17:01.701Z,8.75
2023-05-20T17:19:28.225Z,8.80
2023-05-20T17:21:54.665Z,8.48
2023-05-20T17:24:21.328Z,8.45
2023-05-20T17:26:47.760Z,9.02
2023-05-20T17:29:14.102Z,8.25
2023-05-20T17:31:40.431Z,8.98
2023-05-20T17:34:06.879Z,8.52
2023-05-20T17:36:33.358Z,8.52
2023-05-20T17:38:59.689Z,9.52
2023-05-20T17:41:26.363Z,9.38
2023-05-20T17:43:52.706Z,8.77
2023-05-20T17:46:19.126Z,9.43
2023-05-20T17:48:45.661Z,9.13
2023-05-20T17:51:12.097Z,9.50
2023-05-20T17:53:38.472Z,8.63
2023-05-20T17:56:05.364Z,9.25
2023-05-20T17:58:33.691Z,9.20
2023-05-20T18:01:00.132Z,9.10
2023-05-20T18:03:27.687Z,9.13
2023-05-20T18:05:55.950Z,9.60
2023-05-20T18:08:23.321Z,9.60
2023-05-20T18:10:49.756Z,9.50
2023-05-20T18:13:16.179Z,9.07
2023-05-20T18:15:42.579Z,9.93
2023-05-20T18:18:09.120Z,9.07
2023-05-20T18:20:35.934Z,9.23
2023-05-20T18:23:02.471Z,9.48
2023-05-20T18:25:28.873Z,9.43
2023-05-20T18:27:55.394Z,9.77
2023-05-20T18:30:23.122Z,10.37
2023-05-20T18:32:49.839Z,9.93
2023-05-20T18:35:16.510Z,9.60
2023-05-20T18:37:42.863Z,10.90
2023-05-20T18:40:09.501Z,10.20
2023-05-20T18:42:36.362Z,10.90
2023-05-20T18:45:02.786Z,10.70
2023-05-20T18:47:29.283Z,10.53
2023-05-20T18:49:55.891Z,11.20
2023-05-20T18:52:22.260Z,10.47
2023-05-20T18:54:48.679Z,10.43
2023-05-20T18:57:15.329Z,11.13
2023-05-20T18:59:41.664Z,10.83
2023-05-20T19:02:08.012Z,10.50
2023-05-20T19:04:34.383Z,10.20
2023-05-20T19:07:00.924Z,11.20
2023-05-20T19:09:27.305Z,10.93
2023-05-20T19:11:58.697Z,11.37
2023-05-20T19:14:25.805Z,12.40
2023-05-20T19:16:53.047Z,11.73
2023-05-20T19:19:19.570Z,11.50
2023-05-20T19:21:45.996Z,11.77
2023-05-20T19:24:12.560Z,11.80
2023-05-20T19:26:39.581Z,11.43
2023-05-20T19:29:06.806Z,11.93
2023-05-20T19:31:33.245Z,11.97
2023-05-20T19:33:59.614Z,12.70
2023-05-20T19:36:25.996Z,11.87
2023-05-20T19:38:52.405Z,12.10
2023-05-20T19:41:19.413Z,12.00
2023-05-20T19:43:45.782Z,12.17
2023-05-20T19:46:12.248Z,12.27
2023-05-20T19:48:38.712Z,12.27
2023-05-20T19:51:05.205Z,12.50
2023-05-20T19:53:31.619Z,12.00
2023-05-20T19:55:58.019Z,12.63
2023-05-20T19:58:24.427Z,12.40
2023-05-20T20:00:50.776Z,12.43
2023-05-20T20:03:17.119Z,13.07
2023-05-20T20:05:43.533Z,13.67
2023-05-20T20:08:10.006Z,13.00
2023-05-20T20:10:37.556Z,11.87
2023-05-20T20:13:04.227Z,13.07
2023-05-20T20:15:31.930Z,13.50
2023-05-20T20:17:59.038Z,13.07
2023-05-20T20:20:26.721Z,13.57
2023-05-20T20:22:53.153Z,13.23
2023-05-20T20:25:20.344Z,13.37
2023-05-20T20:27:48.340Z,13.43
2023-05-20T20:30:15.416Z,13.57
2023-05-20T20:32:42.467Z,13.33
2023-05-20T20:35:09.371Z,12.43
2023-05-20T20:37:37.513Z,13.07
2023-05-20T20:40:13.012Z,13.00
2023-05-20T20:42:41.633Z,13.27
2023-05-20T20:45:08.610Z,13.17
2023-05-20T20:47:35.069Z,13.53
2023-05-20T20:50:03.307Z,12.90
2023-05-20T20:52:29.631Z,13.00
2023-05-20T20:54:57.057Z,13.50
2023-05-20T20:57:23.908Z,13.43
2023-05-20T20:59:53.811Z,13.17
2023-05-20T21:02:20.367Z,13.60
2023-05-20T21:04:47.290Z,13.50
2023-05-20T21:07:18.365Z,13.53
2023-05-20T21:09:45.709Z,13.40
2023-05-20T21:12:12.139Z,13.33
2023-05-20T21:14:38.498Z,13.63
2023-05-20T21:17:05.375Z,13.67
2023-05-20T21:19:31.870Z,13.17
2023-05-20T21:21:58.324Z,14.70
2023-05-20T21:24:24.677Z,13.67
2023-05-20T21:26:51.072Z,12.90
2023-05-20T21:29:17.439Z,13.63
2023-05-20T21:31:43.913Z,13.37
2023-05-20T21:34:10.320Z,12.93
2023-05-20T21:36:36.685Z,13.97
2023-05-20T21:39:03.058Z,13.20
2023-05-20T21:41:29.538Z,13.80
2023-05-20T21:43:56.070Z,13.03
2023-05-20T21:46:22.556Z,13.13
2023-05-20T21:48:48.936Z,13.20
2023-05-20T21:51:15.427Z,13.27
2023-05-20T21:53:41.842Z,13.47
2023-05-20T21:56:08.334Z,13.83
2023-05-20T21:58:40.543Z,13.50
2023-05-20T22:01:09.095Z,12.97
2023-05-20T22:03:36.015Z,13.90
2023-05-20T22:06:04.996Z,14.23
2023-05-20T22:08:33.649Z,14.20
2023-05-20T22:11:07.420Z,13.77
2023-05-20T22:13:35.401Z,14.53
2023-05-20T22:16:04.613Z,14.10
2023-05-20T22:18:31.222Z,13.63
2023-05-20T22:21:01.038Z,14.20
2023-05-20T22:23:28.435Z,13.50
2023-05-20T22:25:56.229Z,14.70
2023-05-20T22:28:23.492Z,14.53
2023-05-20T22:30:49.931Z,14.97
2023-05-20T22:33:16.585Z,14.33
2023-05-20T22:35:43.064Z,15.33
2023-05-20T22:38:09.441Z,13.93
2023-05-20T22:40:36.125Z,14.43
2023-05-20T22:43:02.540Z,14.50
2023-05-20T22:45:28.946Z,13.73
2023-05-20T22:47:55.778Z,13.43
2023-05-20T22:50:23.811Z,14.07
2023-05-20T22:52:50.172Z,13.73
2023-05-20T22:55:17.744Z,14.00
2023-05-20T22:57:44.214Z,14.97
2023-05-20T23:00:13.920Z,13.40
2023-05-20T23:02:41.546Z,13.70
2023-05-20T23:05:08.313Z,13.40
2023-05-20T23:07:34.732Z,13.70
2023-05-20T23:10:02.422Z,14.00
2023-05-20T23:12:28.772Z,13.53
2023-05-20T23:14:55.157Z,13.70
2023-05-20T23:17:21.622Z,13.67
2023-05-20T23:19:48.009Z,13.37
2023-05-20T23:22:14.732Z,13.73
2023-05-20T23:24:41.380Z,13.03
2023-05-20T23:27:07.818Z,13.13
2023-05-20T23:29:34.207Z,13.70
2023-05-20T23:32:00.682Z,12.70
2023-05-20T23:34:27.308Z,12.63
2023-05-20T23:36:53.679Z,12.43
2023-05-20T23:39:20.030Z,12.50
2023-05-20T23:41:46.470Z,12.63
2023-05-20T23:44:12.887Z,14.07
2023-05-20T23:46:41.893Z,13.93
2023-05-20T23:49:09.947Z,12.53
2023-05-20T23:51:36.294Z,12.97
2023-05-20T23:54:02.666Z,12.93
2023-05-20T23:56:29.011Z,13.70
2023-05-20T23:58:57.375Z,13.53
